Time;durP1;ratioP1;P1;durP2;ratioP2;P2;SDS_P1;SDS_P2;PMS_P1;PMS_P2;Temp;Humidity;BMP_temperature;BMP_pressure;BME280_temperature;BME280_humidity;BME280_pressure;Samples;Min_cycle;Max_cycle;Signal;HPM_P1;HPM_P2
2022/03/07 00:00:37;;;;;;;27.77;16.73;;;;;;;1.00;100.00;102639.91;10146952;28;20046;-74
2022/03/07 00:05:34;;;;;;;23.98;14.70;;;;;;;0.92;100.00;102646.28;10137823;28;20137;-75
2022/03/07 00:10:30;;;;;;;26.65;15.20;;;;;;;0.90;100.00;102650.22;10136315;28;20050;-74
2022/03/07 00:15:28;;;;;;;23.38;14.68;;;;;;;0.83;100.00;102661.81;10150615;28;20493;-70
2022/03/07 00:20:25;;;;;;;28.65;16.33;;;;;;;0.89;100.00;102662.03;10140143;28;20440;-72
2022/03/07 00:25:21;;;;;;;23.85;15.88;;;;;;;0.81;100.00;102671.13;10144809;28;20077;-70
2022/03/07 00:30:19;;;;;;;27.52;15.40;;;;;;;0.78;100.00;102666.16;10142420;28;20062;-73
2022/03/07 00:35:16;;;;;;;24.48;16.05;;;;;;;0.79;100.00;102676.75;10130484;28;20806;-72
2022/03/07 00:40:13;;;;;;;25.95;15.30;;;;;;;0.70;100.00;102679.84;10146591;28;20485;-71
2022/03/07 00:45:10;;;;;;;29.30;16.58;;;;;;;0.69;100.00;102672.78;10156037;28;20133;-70
2022/03/07 00:50:07;;;;;;;25.85;15.02;;;;;;;0.57;100.00;102670.66;10154508;28;20134;-69
2022/03/07 00:55:04;;;;;;;27.55;16.20;;;;;;;0.61;100.00;102671.09;10145431;28;20043;-71
2022/03/07 01:00:01;;;;;;;26.77;15.18;;;;;;;0.54;100.00;102675.66;10152704;28;20489;-68
2022/03/07 01:05:00;;;;;;;25.17;16.35;;;;;;;0.52;100.00;102678.53;10144365;28;20496;-67
2022/03/07 01:09:57;;;;;;;23.88;14.85;;;;;;;0.48;100.00;102671.88;10149425;28;20120;-68
2022/03/07 01:14:54;;;;;;;25.17;15.90;;;;;;;0.48;100.00;102666.50;10144494;28;20401;-68
2022/03/07 01:19:50;;;;;;;25.60;15.85;;;;;;;0.42;100.00;102675.41;10144431;28;20153;-74
2022/03/07 01:24:47;;;;;;;28.50;15.98;;;;;;;0.41;100.00;102676.41;10151416;28;20042;-75
2022/03/07 01:29:43;;;;;;;27.00;15.88;;;;;;;0.32;100.00;102672.25;10152730;28;20108;-74
2022/03/07 01:34:40;;;;;;;25.70;15.38;;;;;;;0.29;100.00;102672.66;10144373;28;20047;-74
2022/03/07 01:39:36;;;;;;;26.98;17.30;;;;;;;0.27;100.00;102685.47;10129678;28;20138;-70
2022/03/07 01:44:34;;;;;;;29.20;16.15;;;;;;;0.18;100.00;102677.56;10150061;28;20100;-70
2022/03/07 01:49:30;;;;;;;25.63;16.73;;;;;;;0.17;100.00;102675.91;10151067;28;20193;-70
2022/03/07 01:54:27;;;;;;;30.55;17.98;;;;;;;0.24;100.00;102675.94;10153565;28;20072;-70
2022/03/07 01:59:29;;;;;;;28.48;15.48;;;;;;;0.13;100.00;102674.66;10130976;28;20501;-69
2022/03/07 02:09:36;;;;;;;29.65;17.55;;;;;;;0.14;100.00;102662.88;10377899;23;20496;-73
2022/03/07 02:14:34;;;;;;;29.73;18.75;;;;;;;0.09;100.00;102668.00;10108034;28;20396;-76
2022/03/07 02:19:31;;;;;;;26.58;16.65;;;;;;;0.11;100.00;102660.56;10109342;28;20055;-75
2022/03/07 02:24:28;;;;;;;25.35;15.45;;;;;;;0.07;100.00;102659.31;10116428;28;20051;-75
2022/03/07 02:29:25;;;;;;;27.45;18.23;;;;;;;0.10;100.00;102653.53;10095788;28;20073;-75
2022/03/07 02:34:21;;;;;;;24.10;14.85;;;;;;;0.02;100.00;102647.50;10109199;28;20090;-73
2022/03/07 02:39:19;;;;;;;29.27;17.85;;;;;;;-0.04;100.00;102646.44;10108553;28;20551;-73
2022/03/07 02:44:16;;;;;;;27.02;16.92;;;;;;;-0.06;100.00;102643.13;10108630;28;20042;-72
2022/03/07 02:49:13;;;;;;;32.83;16.70;;;;;;;-0.06;100.00;102649.31;10091153;28;20079;-75
2022/03/07 02:54:09;;;;;;;27.88;16.85;;;;;;;-0.07;100.00;102644.97;10103056;28;20094;-75
2022/03/07 02:59:05;;;;;;;25.10;16.15;;;;;;;-0.18;100.00;102648.22;10094620;28;20134;-75
2022/03/07 03:04:02;;;;;;;31.13;18.92;;;;;;;-0.15;100.00;102655.06;10097480;28;20532;-75
2022/03/07 03:08:59;;;;;;;26.67;16.92;;;;;;;-0.19;100.00;102654.63;10106700;28;20070;-70
2022/03/07 03:13:55;;;;;;;27.10;17.33;;;;;;;-0.17;100.00;102651.75;10110511;28;20106;-70
2022/03/07 03:18:52;;;;;;;27.35;16.92;;;;;;;-0.25;100.00;102658.13;10106445;28;20468;-70
2022/03/07 03:23:48;;;;;;;25.95;15.90;;;;;;;-0.30;100.00;102658.72;10107330;28;20069;-70
2022/03/07 03:28:45;;;;;;;30.70;17.85;;;;;;;-0.35;100.00;102661.13;10111554;28;20058;-71
2022/03/07 03:33:42;;;;;;;27.15;17.33;;;;;;;-0.41;100.00;102667.31;10088254;28;20534;-70
2022/03/07 03:38:39;;;;;;;23.42;14.73;;;;;;;-0.39;100.00;102667.13;10099454;28;20463;-71
2022/03/07 03:43:35;;;;;;;26.42;16.33;;;;;;;-0.36;100.00;102681.00;10100867;28;20126;-69
2022/03/07 03:48:32;;;;;;;29.33;17.20;;;;;;;-0.33;100.00;102677.91;10101085;28;20504;-76
2022/03/07 03:53:30;;;;;;;28.15;17.27;;;;;;;-0.36;100.00;102681.00;10109507;28;20098;-76
2022/03/07 03:58:26;;;;;;;30.85;18.45;;;;;;;-0.41;100.00;102678.06;10109474;28;20057;-72
2022/03/07 04:03:23;;;;;;;27.58;17.27;;;;;;;-0.42;100.00;102679.06;10118023;28;20042;-75
2022/03/07 04:08:22;;;;;;;30.90;17.42;;;;;;;-0.49;100.00;102675.53;10099505;28;20426;-75
2022/03/07 04:13:19;;;;;;;29.25;16.77;;;;;;;-0.51;100.00;102675.72;10108077;28;20130;-75
2022/03/07 04:18:15;;;;;;;26.60;15.88;;;;;;;-0.56;100.00;102685.38;10108960;28;20071;-71
2022/03/07 04:23:12;;;;;;;26.08;16.80;;;;;;;-0.60;100.00;102684.97;10113292;28;20640;-72
2022/03/07 04:28:09;;;;;;;29.10;19.52;;;;;;;-0.59;100.00;102685.78;10109387;28;20565;-72
2022/03/07 04:33:05;;;;;;;30.45;17.00;;;;;;;-0.54;100.00;102683.34;10114886;28;20050;-72
2022/03/07 04:38:02;;;;;;;24.65;16.65;;;;;;;-0.63;100.00;102685.34;10111715;28;20078;-71
2022/03/07 04:42:58;;;;;;;26.50;16.38;;;;;;;-0.62;100.00;102680.81;10098052;28;20505;-74
2022/03/07 04:47:55;;;;;;;28.10;16.23;;;;;;;-0.68;100.00;102674.34;10106241;28;20535;-74
2022/03/07 04:52:51;;;;;;;28.05;17.05;;;;;;;-0.68;100.00;102677.03;10112227;28;20078;-74
2022/03/07 04:57:48;;;;;;;31.73;18.75;;;;;;;-0.61;100.00;102671.72;10129196;28;20730;-75
2022/03/07 05:02:44;;;;;;;28.05;17.05;;;;;;;-0.65;100.00;102682.88;10112119;28;20105;-75
2022/03/07 05:07:41;;;;;;;28.88;15.75;;;;;;;-0.67;100.00;102684.09;10101384;28;20516;-70
2022/03/07 05:12:37;;;;;;;25.33;15.52;;;;;;;-0.73;100.00;102690.22;10102034;28;20578;-71
2022/03/07 05:17:44;;;;;;;22.67;14.90;;;;;;;-0.81;100.00;102691.19;10099376;28;20416;-72
2022/03/07 05:22:42;;;;;;;27.13;15.00;;;;;;;-0.80;100.00;102695.53;10089434;28;20118;-73
2022/03/07 05:27:39;;;;;;;26.25;15.77;;;;;;;-0.83;100.00;102700.47;10096417;28;20142;-71
2022/03/07 05:32:35;;;;;;;25.15;15.43;;;;;;;-0.78;100.00;102704.22;10091089;28;20073;-75
2022/03/07 05:37:32;;;;;;;23.35;14.93;;;;;;;-0.78;100.00;102712.28;10106405;28;20050;-71
2022/03/07 05:42:28;;;;;;;24.08;15.45;;;;;;;-0.71;100.00;102710.50;10098900;28;20047;-75
2022/03/07 05:47:25;;;;;;;22.77;15.02;;;;;;;-0.57;100.00;102710.63;10096588;28;20731;-70
2022/03/07 05:52:21;;;;;;;27.17;15.80;;;;;;;-0.57;100.00;102711.44;10091800;28;20046;-70
2022/03/07 05:57:18;;;;;;;26.35;17.45;;;;;;;-0.53;100.00;102711.88;10087068;28;20117;-67
2022/03/07 06:02:14;;;;;;;24.65;15.82;;;;;;;-0.60;100.00;102705.59;10088688;28;20051;-69
2022/03/07 06:07:11;;;;;;;20.90;14.07;;;;;;;-0.76;100.00;102712.94;10087068;28;20046;-69
2022/03/07 06:12:08;;;;;;;20.15;13.07;;;;;;;-0.76;100.00;102707.56;10078541;28;20141;-69
2022/03/07 06:17:05;;;;;;;28.17;16.15;;;;;;;-0.61;100.00;102709.34;10080600;28;20054;-69
2022/03/07 06:22:02;;;;;;;25.17;14.32;;;;;;;-0.73;100.00;102720.59;10082253;28;20661;-69
2022/03/07 06:26:59;;;;;;;25.88;15.43;;;;;;;-0.78;100.00;102724.91;10072143;28;20048;-69
2022/03/07 06:31:56;;;;;;;30.63;16.85;;;;;;;-0.63;100.00;102722.94;10073702;28;20127;-69
2022/03/07 06:36:52;;;;;;;24.08;14.43;;;;;;;-0.73;100.00;102707.16;10074701;28;20513;-69
2022/03/07 06:41:49;;;;;;;22.67;15.50;;;;;;;-0.69;100.00;102713.81;10073720;28;20571;-69
2022/03/07 06:46:45;;;;;;;24.05;15.18;;;;;;;-0.64;100.00;102716.75;10074726;28;20126;-69
2022/03/07 06:51:42;;;;;;;22.55;14.65;;;;;;;-0.61;100.00;102720.06;10073110;28;20635;-69
2022/03/07 06:56:38;;;;;;;20.58;14.00;;;;;;;-0.58;100.00;102703.56;10084069;28;20043;-69
2022/03/07 07:01:35;;;;;;;21.33;14.38;;;;;;;-0.46;100.00;102712.78;10101456;28;20110;-69
2022/03/07 07:06:32;;;;;;;22.50;15.40;;;;;;;-0.49;100.00;102714.00;10070947;28;20077;-69
2022/03/07 07:11:28;;;;;;;22.83;13.68;;;;;;;-0.33;100.00;102707.47;10072137;28;20142;-69
2022/03/07 07:16:25;;;;;;;26.00;14.70;;;;;;;-0.36;100.00;102713.25;10095417;28;20078;-69
2022/03/07 07:21:21;;;;;;;22.25;13.85;;;;;;;-0.18;100.00;102715.44;10086888;28;20063;-69
2022/03/07 07:26:18;;;;;;;20.30;14.32;;;;;;;-0.11;100.00;102715.50;10073654;28;20051;-69
2022/03/07 07:31:14;;;;;;;23.20;14.55;;;;;;;0.04;100.00;102724.25;10071999;28;20086;-69
2022/03/07 07:36:12;;;;;;;19.00;12.85;;;;;;;-0.02;100.00;102720.50;10094240;28;20074;-69
2022/03/07 07:41:10;;;;;;;21.15;13.63;;;;;;;0.10;100.00;102718.09;10111032;28;20117;-69
2022/03/07 07:46:06;;;;;;;27.77;13.60;;;;;;;0.24;100.00;102723.56;10088261;28;20707;-70
2022/03/07 07:51:03;;;;;;;22.33;13.43;;;;;;;0.27;100.00;102733.91;10107007;28;20078;-71
2022/03/07 07:56:03;;;;;;;22.15;14.00;;;;;;;0.44;100.00;102724.44;10089489;28;20055;-71
2022/03/07 08:01:00;;;;;;;21.02;13.50;;;;;;;0.43;100.00;102730.88;10101766;28;20055;-71
2022/03/07 08:05:57;;;;;;;18.83;12.68;;;;;;;0.58;100.00;102730.72;10070072;28;20051;-70
2022/03/07 08:10:53;;;;;;;18.75;12.32;;;;;;;0.69;100.00;102742.78;10071649;28;20106;-71
2022/03/07 08:15:50;;;;;;;17.42;11.93;;;;;;;0.88;100.00;102736.59;10086147;28;20448;-71
2022/03/07 08:20:46;;;;;;;16.20;10.32;;;;;;;1.12;100.00;102739.78;10099814;28;20122;-71
2022/03/07 08:25:43;;;;;;;14.95;8.98;;;;;;;1.20;100.00;102726.09;10069624;28;20519;-71
2022/03/07 08:30:39;;;;;;;16.08;8.80;;;;;;;1.45;100.00;102726.34;10071157;28;20098;-71
2022/03/07 08:35:36;;;;;;;15.45;8.10;;;;;;;1.64;100.00;102730.06;10071807;28;20047;-71
2022/03/07 08:40:32;;;;;;;14.07;8.95;;;;;;;1.83;100.00;102739.16;10070338;28;20047;-71
2022/03/07 08:45:29;;;;;;;13.27;8.05;;;;;;;1.99;100.00;102737.88;10082264;28;20058;-71
2022/03/07 08:50:48;;;;;;;13.88;7.82;;;;;;;2.18;100.00;102739.72;10106175;28;20417;-71
2022/03/07 08:55:45;;;;;;;11.05;7.78;;;;;;;2.41;100.00;102741.09;10077346;28;20039;-71
2022/03/07 09:00:52;;;;;;;11.30;8.00;;;;;;;2.59;100.00;102743.94;10085595;28;20058;-71
2022/03/07 09:05:49;;;;;;;11.55;7.18;;;;;;;2.92;100.00;102740.22;10086507;28;20055;-71
2022/03/07 09:10:45;;;;;;;10.73;6.65;;;;;;;3.10;100.00;102734.91;10077224;28;20071;-71
2022/03/07 09:15:45;;;;;;;11.00;6.47;;;;;;;3.34;100.00;102740.56;10091564;28;20047;-71
2022/03/07 09:20:41;;;;;;;8.90;4.45;;;;;;;3.64;100.00;102745.31;10114591;28;20080;-70
2022/03/07 09:25:38;;;;;;;7.35;3.53;;;;;;;3.93;100.00;102722.16;10081699;28;20047;-71
2022/03/07 09:30:35;;;;;;;7.75;3.35;;;;;;;4.17;100.00;102723.16;10076635;28;20078;-70
2022/03/07 09:35:33;;;;;;;7.13;3.58;;;;;;;4.35;100.00;102742.09;10073708;28;20059;-71
2022/03/07 09:40:29;;;;;;;7.35;3.45;;;;;;;4.65;100.00;102741.31;10076198;28;20454;-69
2022/03/07 09:45:26;;;;;;;7.57;2.78;;;;;;;4.85;100.00;102731.03;10078285;28;20988;-69
2022/03/07 09:50:22;;;;;;;4.80;2.40;;;;;;;5.00;100.00;102729.78;10075178;28;20158;-69
2022/03/07 09:55:19;;;;;;;5.35;2.75;;;;;;;5.46;100.00;102730.97;10073921;28;20461;-71
2022/03/07 10:00:16;;;;;;;6.85;3.05;;;;;;;5.76;100.00;102724.63;10111876;28;20475;-70
2022/03/07 10:05:13;;;;;;;6.25;2.88;;;;;;;6.08;100.00;102728.63;10104452;28;20110;-71
2022/03/07 10:10:10;;;;;;;7.47;2.85;;;;;;;6.35;99.80;102725.38;10111836;28;20105;-70
2022/03/07 10:15:11;;;;;;;6.07;3.15;;;;;;;6.99;95.38;102738.88;10105278;28;20845;-70
2022/03/07 10:20:09;;;;;;;5.85;2.33;;;;;;;7.57;90.80;102743.13;10111950;28;20054;-70
2022/03/07 10:25:08;;;;;;;6.32;2.40;;;;;;;8.04;82.82;102733.72;10076482;28;20678;-70
2022/03/07 10:30:16;;;;;;;6.75;2.60;;;;;;;8.20;85.36;102738.31;10073850;28;20083;-71
2022/03/07 10:35:29;;;;;;;5.63;2.20;;;;;;;7.70;64.80;102735.69;10075144;28;20771;-70
2022/03/07 10:40:28;;;;;;;4.63;2.42;;;;;;;7.45;69.23;102734.22;10103044;28;20109;-71
2022/03/07 10:45:24;;;;;;;6.22;2.40;;;;;;;7.54;71.71;102740.06;10109928;28;20070;-71
2022/03/07 10:50:23;;;;;;;6.53;1.85;;;;;;;7.83;67.05;102737.25;10072192;28;20051;-70
2022/03/07 10:55:24;;;;;;;5.38;1.42;;;;;;;7.85;64.67;102740.56;10077384;28;20051;-70
2022/03/07 11:00:22;;;;;;;3.42;1.10;;;;;;;8.19;74.35;102741.28;10109784;28;20054;-71
2022/03/07 11:05:19;;;;;;;2.67;1.02;;;;;;;8.48;69.56;102733.78;10095187;28;20139;-71
2022/03/07 11:10:17;;;;;;;4.60;1.40;;;;;;;8.86;60.97;102734.75;10071041;28;20055;-70
2022/03/07 11:15:18;;;;;;;3.85;0.82;;;;;;;9.26;53.80;102717.13;10079681;28;20082;-70
2022/03/07 11:20:17;;;;;;;3.15;0.80;;;;;;;9.63;72.83;102722.63;10071969;28;20055;-70
2022/03/07 11:25:16;;;;;;;1.85;0.50;;;;;;;9.44;81.71;102719.44;10071738;28;20492;-70
2022/03/07 11:30:18;;;;;;;2.75;0.82;;;;;;;9.32;58.70;102724.28;10070484;28;20059;-71
2022/03/07 11:35:15;;;;;;;1.33;0.60;;;;;;;9.57;53.71;102706.44;10071272;28;20446;-71
2022/03/07 11:40:24;;;;;;;2.50;1.00;;;;;;;9.77;53.32;102712.06;10071545;28;20093;-71
2022/03/07 11:45:22;;;;;;;2.50;0.93;;;;;;;10.20;48.48;102704.63;10073436;28;20122;-71
2022/03/07 11:50:22;;;;;;;3.10;0.95;;;;;;;10.42;46.71;102703.63;10077706;28;20474;-71
2022/03/07 11:55:19;;;;;;;4.47;1.35;;;;;;;10.26;45.43;102698.09;10073785;28;20147;-71
2022/03/07 12:00:16;;;;;;;2.65;1.15;;;;;;;10.43;43.86;102691.63;10072053;28;20077;-71
2022/03/07 12:05:21;;;;;;;2.50;1.20;;;;;;;10.55;42.56;102683.97;10069948;28;20063;-70
2022/03/07 12:10:18;;;;;;;3.75;1.10;;;;;;;10.81;46.64;102687.59;10083169;28;20054;-71
2022/03/07 12:15:15;;;;;;;3.92;1.25;;;;;;;11.04;42.40;102691.72;10096440;28;20142;-71
2022/03/07 12:20:11;;;;;;;3.95;1.80;;;;;;;11.67;43.29;102671.41;10091909;28;20819;-71
2022/03/07 12:25:08;;;;;;;2.55;1.05;;;;;;;12.42;38.92;102677.75;10080711;28;20055;-71
2022/03/07 12:30:07;;;;;;;3.63;1.25;;;;;;;12.96;37.94;102664.22;10115572;28;20054;-71
2022/03/07 12:35:05;;;;;;;3.25;1.30;;;;;;;13.59;36.39;102672.47;10100407;28;20051;-72
2022/03/07 12:40:05;;;;;;;3.00;0.90;;;;;;;14.22;36.58;102667.91;10078360;28;20047;-71
2022/03/07 12:45:04;;;;;;;4.32;1.10;;;;;;;14.43;38.27;102655.50;10076965;28;20118;-71
2022/03/07 12:50:02;;;;;;;4.15;1.10;;;;;;;15.14;32.01;102650.03;10077443;28;20078;-71
2022/03/07 12:55:05;;;;;;;2.47;0.90;;;;;;;15.66;29.32;102656.22;10079346;28;20063;-71
2022/03/07 13:00:05;;;;;;;;;;;;;;;16.23;30.64;102638.56;10094650;28;20047;-71
2022/03/07 13:05:03;;;;;;;2.58;0.68;;;;;;;17.23;29.62;102630.09;10079378;28;20034;-71
2022/03/07 13:10:06;;;;;;;1.85;0.70;;;;;;;17.15;26.75;102630.88;10084687;28;20098;-71
2022/03/07 13:15:06;;;;;;;2.40;0.70;;;;;;;17.63;26.50;102610.75;10086585;28;20058;-71
2022/03/07 13:20:03;;;;;;;3.35;0.90;;;;;;;18.06;25.00;102607.34;10078386;28;20059;-72
2022/03/07 13:25:00;;;;;;;3.08;0.60;;;;;;;18.75;29.60;102605.72;10078374;28;20075;-71
2022/03/07 13:30:09;;;;;;;2.90;0.73;;;;;;;19.07;25.71;102602.41;10075465;28;20146;-71
2022/03/07 13:35:07;;;;;;;2.83;0.90;;;;;;;19.32;25.52;102602.66;10074711;28;20166;-72
2022/03/07 13:40:12;;;;;;;1.92;0.65;;;;;;;18.94;23.79;102592.34;10075500;28;20109;-71
2022/03/07 13:45:12;;;;;;;2.22;0.70;;;;;;;18.68;26.35;102590.41;10100311;28;20056;-72
2022/03/07 13:50:25;;;;;;;2.88;0.80;;;;;;;18.33;24.16;102592.38;10105551;28;20172;-72
2022/03/07 13:55:23;;;;;;;3.58;0.93;;;;;;;19.13;25.03;102590.00;10100329;28;20046;-72
2022/03/07 14:00:23;;;;;;;2.97;0.70;;;;;;;19.08;23.85;102581.88;10111784;28;20054;-72
2022/03/07 14:05:20;;;;;;;2.38;0.80;;;;;;;18.82;24.33;102578.34;10101731;28;20051;-72
2022/03/07 14:10:18;;;;;;;2.97;1.00;;;;;;;19.28;25.33;102568.41;10112905;28;20090;-72
2022/03/07 14:15:14;;;;;;;2.75;0.90;;;;;;;19.42;24.61;102574.56;10106885;28;20133;-72
2022/03/07 14:20:11;;;;;;;3.08;1.00;;;;;;;19.23;22.76;102576.94;10075555;28;20063;-72
2022/03/07 14:25:08;;;;;;;3.38;1.10;;;;;;;19.08;25.32;102581.88;10083832;28;20801;-72
2022/03/07 14:30:06;;;;;;;3.22;1.30;;;;;;;19.25;25.58;102574.66;10109271;28;20063;-71
2022/03/07 14:35:03;;;;;;;3.63;1.58;;;;;;;18.69;23.43;102580.94;10080443;28;20051;-72
2022/03/07 14:40:00;;;;;;;3.28;1.30;;;;;;;18.26;24.41;102579.03;10106502;28;20466;-71
2022/03/07 14:44:56;;;;;;;4.32;1.02;;;;;;;18.28;25.81;102576.72;10083251;28;20059;-72
2022/03/07 14:49:53;;;;;;;4.65;1.40;;;;;;;18.32;25.24;102576.09;10102232;28;20051;-72
2022/03/07 14:54:51;;;;;;;4.75;1.35;;;;;;;17.94;24.84;102560.09;10082565;28;20098;-71
2022/03/07 15:00:11;;;;;;;2.92;1.05;;;;;;;17.79;24.49;102559.38;10087493;28;20066;-71
2022/03/07 15:05:09;;;;;;;6.07;1.40;;;;;;;17.78;25.77;102557.78;10079642;28;20092;-72
2022/03/07 15:10:05;;;;;;;3.88;1.13;;;;;;;18.18;25.64;102554.91;10090805;28;20141;-72
2022/03/07 15:15:03;;;;;;;3.22;1.35;;;;;;;17.71;24.34;102557.44;10082027;28;20075;-70
2022/03/07 15:20:00;;;;;;;3.90;1.30;;;;;;;17.83;23.61;102554.88;10104957;28;20050;-71
2022/03/07 15:24:57;;;;;;;4.45;1.20;;;;;;;17.59;24.81;102543.38;10091196;28;20074;-70
2022/03/07 15:29:54;;;;;;;3.28;1.20;;;;;;;16.83;25.11;102544.38;10089163;28;20054;-70
2022/03/07 15:34:50;;;;;;;4.07;1.40;;;;;;;16.07;26.62;102545.09;10105860;28;20105;-71
2022/03/07 15:39:47;;;;;;;3.10;1.45;;;;;;;15.86;27.55;102550.25;10101047;28;20070;-70
2022/03/07 15:44:49;;;;;;;4.80;1.17;;;;;;;15.51;27.88;102549.03;10096419;28;20098;-70
2022/03/07 15:49:46;;;;;;;4.00;1.27;;;;;;;15.12;28.25;102548.38;10101404;28;20177;-71
2022/03/07 15:54:42;;;;;;;3.83;1.15;;;;;;;14.80;29.86;102546.47;10104746;28;20592;-70
2022/03/07 15:59:39;;;;;;;4.32;1.33;;;;;;;14.73;29.74;102541.38;10102079;28;20081;-70
2022/03/07 16:04:35;;;;;;;3.55;1.50;;;;;;;14.82;28.06;102536.00;10107442;28;20113;-70
2022/03/07 16:09:32;;;;;;;3.10;1.20;;;;;;;15.44;29.13;102538.41;10108932;28;20043;-70
2022/03/07 16:14:29;;;;;;;4.82;1.70;;;;;;;15.33;28.45;102540.53;10118021;28;20070;-71
2022/03/07 16:19:27;;;;;;;6.97;2.95;;;;;;;14.81;29.34;102537.13;10118172;28;20050;-70
2022/03/07 16:24:24;;;;;;;5.55;2.15;;;;;;;14.12;31.33;102549.75;10117767;28;20097;-71
2022/03/07 16:29:23;;;;;;;6.25;2.33;;;;;;;13.64;31.51;102551.47;10115685;28;20074;-73
2022/03/07 16:34:22;;;;;;;8.90;3.58;;;;;;;13.21;31.57;102548.66;10111860;28;20082;-70
2022/03/07 16:39:19;;;;;;;7.57;2.88;;;;;;;12.82;33.33;102555.06;10099832;28;20105;-70
2022/03/07 16:44:15;;;;;;;7.88;2.70;;;;;;;12.48;33.84;102554.25;10108656;28;20047;-70
2022/03/07 16:49:12;;;;;;;7.70;3.00;;;;;;;12.09;33.62;102568.75;10102988;28;20421;-71
2022/03/07 16:54:09;;;;;;;11.13;4.55;;;;;;;11.85;35.25;102561.19;10104331;28;20145;-71
2022/03/07 16:59:05;;;;;;;13.63;4.80;;;;;;;11.45;36.60;102568.47;10106968;28;20039;-70
2022/03/07 17:04:02;;;;;;;7.65;3.60;;;;;;;11.32;37.07;102566.31;10114361;28;20042;-68
2022/03/07 17:08:58;;;;;;;7.13;2.75;;;;;;;10.98;39.17;102561.47;10102535;28;20288;-68
2022/03/07 17:13:57;;;;;;;5.82;2.30;;;;;;;10.77;39.12;102560.66;10110523;28;20445;-68
2022/03/07 17:18:53;;;;;;;6.30;2.40;;;;;;;10.46;40.27;102570.75;10107080;28;20053;-68
2022/03/07 17:23:50;;;;;;;5.88;2.47;;;;;;;10.19;42.78;102574.50;10109797;28;20134;-68
2022/03/07 17:28:46;;;;;;;8.32;2.17;;;;;;;10.07;43.95;102573.91;10113782;28;20113;-68
2022/03/07 17:33:43;;;;;;;6.07;2.70;;;;;;;9.81;43.65;102576.56;10112876;28;20105;-68
2022/03/07 17:38:40;;;;;;;7.97;3.40;;;;;;;9.61;44.89;102582.75;10103737;28;20081;-68
2022/03/07 17:43:36;;;;;;;7.35;3.33;;;;;;;9.46;45.93;102580.75;10108231;28;20062;-68
2022/03/07 17:48:33;;;;;;;6.75;3.30;;;;;;;9.22;46.95;102585.00;10108636;28;20051;-68
2022/03/07 17:53:29;;;;;;;8.10;3.67;;;;;;;8.99;48.51;102583.47;10106023;28;20054;-68
2022/03/07 17:58:27;;;;;;;8.38;3.67;;;;;;;8.89;50.14;102580.63;10103109;28;20073;-69
2022/03/07 18:03:24;;;;;;;9.18;4.72;;;;;;;8.70;49.97;102572.03;10090467;28;20502;-69
2022/03/07 18:08:21;;;;;;;10.23;4.70;;;;;;;8.52;52.79;102579.53;10083725;28;20493;-69
2022/03/07 18:13:18;;;;;;;7.22;3.58;;;;;;;8.43;56.69;102573.72;10076883;28;20059;-69
2022/03/07 18:18:15;;;;;;;7.35;3.83;;;;;;;8.23;55.17;102584.38;10096632;28;20054;-70
2022/03/07 18:23:11;;;;;;;9.98;3.70;;;;;;;8.09;58.49;102583.13;10102074;28;20161;-70
2022/03/07 18:28:08;;;;;;;9.45;4.90;;;;;;;7.95;59.13;102588.97;10089052;28;20054;-70
2022/03/07 18:33:05;;;;;;;12.10;4.75;;;;;;;7.78;62.30;102583.59;10094383;28;20121;-70
2022/03/07 18:38:03;;;;;;;10.57;5.38;;;;;;;7.73;66.12;102580.00;10095651;28;20047;-70
2022/03/07 18:42:59;;;;;;;11.15;5.00;;;;;;;7.50;67.97;102591.94;10110429;28;20576;-69
2022/03/07 18:47:56;;;;;;;13.60;5.07;;;;;;;7.37;71.49;102599.38;10101600;28;20078;-71
2022/03/07 18:52:53;;;;;;;12.90;5.57;;;;;;;7.30;70.74;102587.03;10110013;28;20055;-70
2022/03/07 18:57:51;;;;;;;13.85;6.20;;;;;;;7.04;71.84;102589.34;10090148;28;20500;-71
2022/03/07 19:02:48;;;;;;;14.77;6.55;;;;;;;7.00;74.55;102595.53;10110587;28;20054;-70
2022/03/07 19:07:45;;;;;;;12.68;6.13;;;;;;;6.91;75.98;102600.56;10104498;28;20262;-70
2022/03/07 19:12:42;;;;;;;18.23;7.05;;;;;;;6.73;76.33;102598.94;10093531;28;20170;-70
2022/03/07 19:17:38;;;;;;;13.63;6.50;;;;;;;6.60;78.30;102601.94;10106719;28;20117;-70
2022/03/07 19:22:35;;;;;;;11.27;6.47;;;;;;;6.57;81.61;102599.69;10103276;28;20097;-69
2022/03/07 19:27:31;;;;;;;15.60;6.60;;;;;;;6.44;83.33;102596.22;10098647;28;20134;-70
2022/03/07 19:32:28;;;;;;;13.10;6.72;;;;;;;6.35;82.74;102614.00;10102772;28;20082;-70
2022/03/07 19:37:24;;;;;;;15.15;6.85;;;;;;;6.26;84.08;102627.13;10082669;28;20134;-69
2022/03/07 19:42:22;;;;;;;13.00;6.82;;;;;;;6.20;84.73;102627.28;10074057;28;20074;-69
2022/03/07 19:47:19;;;;;;;13.43;7.35;;;;;;;6.06;87.55;102633.00;10091019;28;20437;-70
2022/03/07 19:52:16;;;;;;;15.13;7.97;;;;;;;5.95;87.18;102631.13;10109594;28;20146;-70
2022/03/07 19:57:13;;;;;;;14.10;8.13;;;;;;;5.92;89.77;102631.59;10093288;28;20170;-69
2022/03/07 20:02:10;;;;;;;15.52;7.18;;;;;;;5.70;90.23;102624.06;10097236;28;20122;-70
2022/03/07 20:07:07;;;;;;;15.82;8.32;;;;;;;5.72;90.18;102636.56;10079634;28;20047;-69
2022/03/07 20:12:04;;;;;;;15.13;8.07;;;;;;;5.54;91.04;102622.06;10093962;28;20050;-69
2022/03/07 20:17:01;;;;;;;20.50;8.32;;;;;;;5.34;93.28;102640.59;10094917;28;20113;-70
2022/03/07 20:21:58;;;;;;;15.50;7.95;;;;;;;5.36;92.49;102644.75;10099313;28;20057;-69
2022/03/07 20:26:54;;;;;;;12.75;7.40;;;;;;;5.47;93.17;102646.59;10090553;28;20141;-68
2022/03/07 20:31:51;;;;;;;15.50;7.40;;;;;;;5.46;92.85;102641.44;10107817;28;20485;-68
2022/03/07 20:36:48;;;;;;;17.88;7.85;;;;;;;5.35;93.18;102642.25;10082799;28;20090;-67
2022/03/07 20:41:44;;;;;;;16.17;7.60;;;;;;;5.26;93.85;102639.88;10094936;28;20066;-68
2022/03/07 20:46:41;;;;;;;18.52;8.25;;;;;;;5.28;95.24;102648.59;10103083;28;20155;-69
2022/03/07 20:51:38;;;;;;;15.18;7.75;;;;;;;4.97;96.61;102643.50;10101866;28;20047;-73
2022/03/07 20:56:35;;;;;;;14.90;7.65;;;;;;;4.74;98.23;102653.22;10097537;28;20496;-73
2022/03/07 21:01:31;;;;;;;16.63;8.10;;;;;;;4.67;97.92;102648.97;10096058;28;20078;-72
2022/03/07 21:06:28;;;;;;;14.57;7.32;;;;;;;4.68;99.58;102659.56;10098492;28;20054;-71
2022/03/07 21:11:24;;;;;;;15.00;7.22;;;;;;;4.52;100.00;102655.63;10093304;28;20841;-72
2022/03/07 21:16:21;;;;;;;17.20;7.15;;;;;;;4.42;100.00;102652.63;10098542;28;20113;-71
2022/03/07 21:21:19;;;;;;;14.02;6.97;;;;;;;4.28;100.00;102657.41;10075471;28;20058;-71
2022/03/07 21:26:15;;;;;;;17.02;7.53;;;;;;;4.17;100.00;102647.34;10076541;28;20047;-72
2022/03/07 21:31:13;;;;;;;15.75;6.85;;;;;;;4.08;100.00;102649.50;10115474;28;20133;-71
2022/03/07 21:36:09;;;;;;;16.05;7.15;;;;;;;3.93;100.00;102647.19;10090616;28;20047;-71
2022/03/07 21:41:06;;;;;;;12.93;6.63;;;;;;;3.98;100.00;102647.34;10099770;28;20050;-70
2022/03/07 21:46:04;;;;;;;17.02;7.95;;;;;;;3.84;100.00;102653.16;10102847;28;20043;-72
2022/03/07 21:51:01;;;;;;;17.55;8.00;;;;;;;3.79;100.00;102659.22;10081723;28;20129;-70
2022/03/07 21:55:58;;;;;;;15.88;7.15;;;;;;;3.73;100.00;102650.13;10104999;28;20081;-70
2022/03/07 22:00:56;;;;;;;14.07;7.70;;;;;;;3.78;100.00;102646.75;10109875;28;20074;-70
2022/03/07 22:05:52;;;;;;;14.00;6.70;;;;;;;3.74;100.00;102653.69;10102333;28;20050;-72
2022/03/07 22:10:50;;;;;;;14.85;7.05;;;;;;;3.58;100.00;102655.91;10111201;28;20039;-71
2022/03/07 22:15:46;;;;;;;16.75;7.40;;;;;;;3.59;100.00;102657.53;10108801;28;20098;-70
2022/03/07 22:20:43;;;;;;;18.38;7.50;;;;;;;3.47;100.00;102653.94;10075001;28;20062;-69
2022/03/07 22:25:39;;;;;;;11.80;6.47;;;;;;;3.38;100.00;102652.56;10095787;28;20134;-70
2022/03/07 22:30:36;;;;;;;15.88;7.80;;;;;;;3.38;100.00;102655.25;10080379;28;20047;-70
2022/03/07 22:35:32;;;;;;;14.20;7.32;;;;;;;3.23;100.00;102660.19;10084840;28;20450;-70